createdAt,value
2023-05-23T00:01:32.519Z,12.00
2023-05-23T00:03:59.629Z,12.45
2023-05-23T00:06:26.692Z,10.43
2023-05-23T00:08:53.822Z,10.68
2023-05-23T00:11:20.788Z,9.88
2023-05-23T00:13:47.684Z,11.20
2023-05-23T00:16:14.773Z,10.50
2023-05-23T00:18:41.742Z,11.18
2023-05-23T00:21:08.946Z,11.38
2023-05-23T00:23:35.893Z,10.65
2023-05-23T00:26:02.814Z,10.83
2023-05-23T00:28:30.096Z,11.55
2023-05-23T00:30:57.111Z,9.88
2023-05-23T00:33:24.090Z,10.98
2023-05-23T00:35:51.079Z,10.17
2023-05-23T00:38:18.348Z,12.77
2023-05-23T00:40:45.383Z,10.50
2023-05-23T00:43:12.349Z,14.02
2023-05-23T00:45:39.528Z,11.13
2023-05-23T00:48:07.984Z,11.93
2023-05-23T00:50:35.468Z,12.63
2023-05-23T00:53:02.533Z,11.80
2023-05-23T00:55:30.477Z,11.17
2023-05-23T00:57:57.611Z,10.20
2023-05-23T01:00:28.110Z,12.25
2023-05-23T01:02:55.369Z,11.15
2023-05-23T01:05:23.070Z,10.18
2023-05-23T01:07:51.133Z,12.07
2023-05-23T01:10:21.353Z,12.20
2023-05-23T01:12:51.075Z,12.23
2023-05-23T01:15:21.752Z,25.37
2023-05-23T01:18:15.603Z,18.70
2023-05-23T01:20:53.741Z,11.10
2023-05-23T01:23:29.189Z,11.20
2023-05-23T01:26:10.824Z,12.77
2023-05-23T01:28:43.680Z,10.52
2023-05-23T01:31:11.581Z,10.18
2023-05-23T01:33:41.084Z,11.63
2023-05-23T01:36:09.027Z,10.02
2023-05-23T01:38:35.983Z,10.57
2023-05-23T01:41:02.926Z,9.50
2023-05-23T01:43:30.269Z,12.70
2023-05-23T01:45:58.927Z,12.00
2023-05-23T01:48:27.792Z,25.63
2023-05-23T01:50:55.510Z,32.70
2023-05-23T01:53:23.799Z,40.40
2023-05-23T01:55:52.005Z,18.15
2023-05-23T01:58:19.264Z,10.57
2023-05-23T02:00:46.610Z,12.85
2023-05-23T02:03:13.801Z,10.38
2023-05-23T02:05:41.239Z,11.20
2023-05-23T02:08:08.395Z,10.70
2023-05-23T02:10:35.361Z,10.30
2023-05-23T02:13:02.251Z,11.98
2023-05-23T02:15:29.224Z,10.93
2023-05-23T02:17:56.213Z,9.48
2023-05-23T02:20:23.232Z,12.40
2023-05-23T02:22:50.407Z,10.20
2023-05-23T02:25:17.386Z,10.60
2023-05-23T02:27:44.381Z,14.30
2023-05-23T02:30:11.738Z,16.77
2023-05-23T02:32:38.723Z,14.02
2023-05-23T02:35:06.066Z,10.32
2023-05-23T02:37:32.946Z,12.20
2023-05-23T02:39:59.888Z,9.70
2023-05-23T02:42:26.825Z,11.45
2023-05-23T02:44:53.762Z,12.57
2023-05-23T02:47:20.777Z,10.63
2023-05-23T02:49:47.746Z,10.40
2023-05-23T02:52:14.699Z,12.88
2023-05-23T02:54:41.624Z,10.23
2023-05-23T02:57:08.745Z,16.50
2023-05-23T02:59:35.649Z,19.75
2023-05-23T03:02:02.623Z,16.30
2023-05-23T03:04:29.577Z,14.45
2023-05-23T03:06:56.548Z,18.40
2023-05-23T03:09:23.506Z,13.73
2023-05-23T03:11:50.466Z,13.40
2023-05-23T03:14:17.917Z,12.50
2023-05-23T03:16:45.028Z,13.48
2023-05-23T03:19:12.100Z,14.20
2023-05-23T03:21:39.331Z,11.75
2023-05-23T03:24:06.585Z,14.30
2023-05-23T03:26:33.600Z,11.60
2023-05-23T03:29:00.560Z,10.73
2023-05-23T03:31:27.562Z,10.90
2023-05-23T03:33:54.611Z,11.77
2023-05-23T03:36:21.667Z,10.45
2023-05-23T03:38:48.625Z,11.23
2023-05-23T03:41:15.592Z,10.88
2023-05-23T03:43:42.751Z,10.52
2023-05-23T03:46:09.764Z,12.67
2023-05-23T03:48:37.009Z,10.55
2023-05-23T03:51:04.100Z,12.70
2023-05-23T03:53:31.072Z,9.82
2023-05-23T03:55:57.975Z,10.10
2023-05-23T03:58:24.913Z,11.52
2023-05-23T04:00:51.908Z,11.57
2023-05-23T04:03:19.071Z,12.15
2023-05-23T04:05:46.156Z,9.70
2023-05-23T04:08:13.138Z,26.33
2023-05-23T04:10:40.080Z,15.98
2023-05-23T04:13:07.025Z,12.63
2023-05-23T04:15:33.952Z,12.55
2023-05-23T04:18:01.100Z,10.60
2023-05-23T04:20:28.417Z,11.98
2023-05-23T04:22:55.346Z,12.00
2023-05-23T04:25:22.307Z,11.07
2023-05-23T04:27:49.209Z,11.07
2023-05-23T04:30:16.206Z,13.30
2023-05-23T04:32:43.424Z,10.98
2023-05-23T04:35:12.379Z,12.90
2023-05-23T04:37:41.142Z,13.77
2023-05-23T04:40:08.627Z,12.80
2023-05-23T04:42:35.560Z,12.63
2023-05-23T04:45:02.512Z,12.13
2023-05-23T04:47:29.489Z,14.23
2023-05-23T04:49:56.424Z,14.30
2023-05-23T04:52:23.560Z,13.40
2023-05-23T04:54:50.578Z,13.35
2023-05-23T04:57:17.801Z,13.55
2023-05-23T04:59:44.788Z,12.90
2023-05-23T05:02:11.673Z,14.77
2023-05-23T05:04:38.575Z,13.68
2023-05-23T05:07:05.675Z,14.50
2023-05-23T05:09:32.652Z,13.77
2023-05-23T05:11:59.741Z,11.98
2023-05-23T05:14:27.389Z,12.45
2023-05-23T05:16:54.530Z,12.00
2023-05-23T05:19:21.608Z,14.20
2023-05-23T05:21:48.490Z,13.55
2023-05-23T05:24:15.433Z,15.48
2023-05-23T05:26:43.179Z,16.20
2023-05-23T05:29:10.164Z,10.93
2023-05-23T05:31:37.199Z,12.98
2023-05-23T05:34:04.204Z,12.02
2023-05-23T05:36:31.111Z,12.05
2023-05-23T05:38:58.097Z,13.20
2023-05-23T05:41:25.042Z,13.07
2023-05-23T05:43:51.950Z,12.00
2023-05-23T05:46:18.911Z,12.00
2023-05-23T05:48:46.603Z,12.95
2023-05-23T05:51:13.519Z,13.48
2023-05-23T05:53:40.414Z,11.10
2023-05-23T05:56:07.363Z,12.55
2023-05-23T05:58:34.259Z,12.02
2023-05-23T06:01:01.188Z,11.70
2023-05-23T06:03:28.363Z,11.80
2023-05-23T06:05:55.547Z,10.75
2023-05-23T06:08:22.762Z,10.80
2023-05-23T06:10:49.811Z,12.27
2023-05-23T06:13:16.898Z,13.13
2023-05-23T06:15:44.161Z,11.93
2023-05-23T06:18:11.132Z,12.40
2023-05-23T06:20:38.254Z,12.15
2023-05-23T06:23:05.283Z,11.50
2023-05-23T06:25:32.509Z,12.38
2023-05-23T06:27:59.407Z,10.98
2023-05-23T06:30:26.704Z,11.00
2023-05-23T06:32:53.669Z,10.43
2023-05-23T06:35:20.654Z,10.73
2023-05-23T06:37:47.564Z,10.98
2023-05-23T06:40:14.572Z,9.90
2023-05-23T06:42:41.958Z,12.20
2023-05-23T06:45:09.559Z,12.30
2023-05-23T06:47:36.482Z,11.82
2023-05-23T06:50:04.286Z,12.45
2023-05-23T06:52:31.214Z,15.50
2023-05-23T06:54:58.151Z,15.13
2023-05-23T06:57:25.046Z,12.65
2023-05-23T06:59:51.949Z,14.05
2023-05-23T07:02:18.862Z,15.93
2023-05-23T07:04:45.824Z,14.45
2023-05-23T07:07:12.837Z,15.93
2023-05-23T07:09:39.801Z,14.83
2023-05-23T07:12:07.536Z,12.32
2023-05-23T07:14:34.470Z,13.30
2023-05-23T07:17:01.701Z,13.57
2023-05-23T07:19:28.791Z,15.75
2023-05-23T07:21:55.855Z,13.60
2023-05-23T07:24:24.573Z,14.30
2023-05-23T07:26:52.322Z,14.57
2023-05-23T07:29:19.280Z,15.60
2023-05-23T07:31:46.334Z,14.90
2023-05-23T07:34:13.317Z,15.10
2023-05-23T07:36:40.270Z,16.45
2023-05-23T07:39:07.504Z,19.08
2023-05-23T07:41:34.429Z,18.30
2023-05-23T07:44:01.415Z,19.10
2023-05-23T07:46:28.423Z,16.80
2023-05-23T07:48:55.572Z,19.65
2023-05-23T07:51:22.513Z,19.50
2023-05-23T07:53:49.510Z,17.77
2023-05-23T07:56:16.451Z,17.08
2023-05-23T07:58:43.374Z,19.00
2023-05-23T08:01:10.334Z,15.18
2023-05-23T08:03:37.205Z,17.20
2023-05-23T08:06:04.241Z,15.65
2023-05-23T08:08:31.173Z,15.25
2023-05-23T08:10:58.100Z,16.92
2023-05-23T08:13:25.065Z,16.92
2023-05-23T08:15:52.255Z,14.02
2023-05-23T08:18:19.216Z,15.45
2023-05-23T08:20:46.183Z,16.90
2023-05-23T08:23:13.141Z,17.27
2023-05-23T08:25:40.143Z,14.85
2023-05-23T08:28:07.076Z,17.48
2023-05-23T08:30:34.035Z,17.42
2023-05-23T08:33:01.017Z,13.90
2023-05-23T08:35:27.978Z,14.13
2023-05-23T08:37:54.974Z,15.43
2023-05-23T08:40:23.272Z,12.93
2023-05-23T08:42:50.765Z,13.30
2023-05-23T08:45:18.372Z,14.07
2023-05-23T08:47:46.808Z,13.30
2023-05-23T08:50:15.618Z,13.40
2023-05-23T08:52:55.345Z,13.77
2023-05-23T08:55:25.002Z,17.58
2023-05-23T08:57:52.193Z,12.77
2023-05-23T09:00:20.301Z,15.52
2023-05-23T09:02:47.546Z,12.73
2023-05-23T09:05:14.663Z,10.00
2023-05-23T09:07:43.426Z,8.57
2023-05-23T09:10:11.341Z,10.90
2023-05-23T09:12:38.473Z,8.48
2023-05-23T09:15:06.545Z,9.38
2023-05-23T09:17:33.505Z,10.43
2023-05-23T09:20:00.778Z,11.23
2023-05-23T09:22:28.702Z,13.95
2023-05-23T09:24:56.699Z,12.80
2023-05-23T09:27:23.852Z,10.85
2023-05-23T09:29:51.020Z,13.13
2023-05-23T09:32:18.921Z,14.43
2023-05-23T09:34:58.922Z,12.02
2023-05-23T09:37:58.925Z,12.60
2023-05-23T09:40:30.871Z,12.35
2023-05-23T09:43:05.420Z,10.77
2023-05-23T09:45:33.711Z,12.07
2023-05-23T09:48:00.721Z,10.80
2023-05-23T09:50:32.767Z,12.80
2023-05-23T09:53:01.070Z,12.07
2023-05-23T09:55:28.055Z,13.43
2023-05-23T09:57:55.759Z,12.60
2023-05-23T10:00:23.787Z,13.67
2023-05-23T10:03:10.020Z,14.60
2023-05-23T10:05:38.909Z,13.98
2023-05-23T10:08:11.074Z,15.48
2023-05-23T10:10:58.573Z,13.77
2023-05-23T10:13:29.281Z,13.30
2023-05-23T10:16:03.062Z,13.40
2023-05-23T10:18:32.022Z,12.38
2023-05-23T10:21:07.206Z,15.18
2023-05-23T10:23:34.889Z,14.50
2023-05-23T10:26:03.512Z,11.77
2023-05-23T10:28:33.707Z,11.75
2023-05-23T10:31:01.200Z,10.25
2023-05-23T10:33:31.880Z,12.45
2023-05-23T10:36:15.088Z,11.15
2023-05-23T10:39:03.504Z,13.50
2023-05-23T10:41:46.462Z,11.50
2023-05-23T10:44:27.414Z,14.38
2023-05-23T10:46:56.684Z,11.38
2023-05-23T10:49:37.718Z,11.55
2023-05-23T10:52:08.062Z,11.77
2023-05-23T10:54:46.449Z,9.95
2023-05-23T10:57:17.604Z,13.38
2023-05-23T10:59:46.042Z,11.23
2023-05-23T11:02:14.885Z,11.98
2023-05-23T11:04:42.105Z,13.30
2023-05-23T11:07:32.816Z,12.00
2023-05-23T11:10:11.649Z,11.60
2023-05-23T11:12:43.272Z,16.00
2023-05-23T11:15:19.463Z,12.07
2023-05-23T11:17:58.928Z,11.50
2023-05-23T11:20:26.168Z,11.70
2023-05-23T11:23:03.198Z,15.50
2023-05-23T11:25:44.255Z,11.65
2023-05-23T11:28:12.893Z,11.05
2023-05-23T11:30:41.179Z,10.43
2023-05-23T11:33:10.189Z,9.97
2023-05-23T11:35:37.190Z,10.77
2023-05-23T11:38:05.539Z,8.35
2023-05-23T11:40:32.468Z,7.40
2023-05-23T11:43:00.542Z,11.80
2023-05-23T11:45:29.202Z,10.57
2023-05-23T11:47:56.253Z,7.60
2023-05-23T11:50:23.342Z,7.75
2023-05-23T11:52:51.036Z,7.93
2023-05-23T11:55:20.170Z,6.97
2023-05-23T11:57:47.703Z,7.97
2023-05-23T12:00:16.001Z,7.80
2023-05-23T12:02:44.705Z,6.85
2023-05-23T12:05:13.393Z,6.60
2023-05-23T12:07:47.650Z,6.10
2023-05-23T12:10:18.811Z,7.57
2023-05-23T12:12:45.880Z,7.10
2023-05-23T12:15:13.533Z,7.93
2023-05-23T12:17:49.627Z,7.70
2023-05-23T12:20:16.667Z,8.07
2023-05-23T12:22:43.732Z,7.75
2023-05-23T12:25:10.751Z,8.95
2023-05-23T12:27:42.171Z,7.93
2023-05-23T12:30:15.188Z,8.35
2023-05-23T12:32:43.359Z,8.18
2023-05-23T12:35:12.504Z,8.82
2023-05-23T12:37:40.814Z,7.80
2023-05-23T12:40:15.133Z,8.32
2023-05-23T12:43:00.336Z,7.82
2023-05-23T12:45:35.821Z,7.72
2023-05-23T12:48:06.711Z,6.65
2023-05-23T12:50:33.861Z,16.10
2023-05-23T12:53:00.931Z,18.73
2023-05-23T12:55:27.858Z,7.22
2023-05-23T12:57:55.107Z,5.60
2023-05-23T13:00:22.295Z,6.32
2023-05-23T13:02:49.283Z,5.00
2023-05-23T13:05:16.234Z,6.15
2023-05-23T13:07:43.172Z,5.70
2023-05-23T13:10:10.636Z,5.40
2023-05-23T13:12:37.629Z,6.88
2023-05-23T13:15:06.328Z,7.00
2023-05-23T13:17:33.268Z,9.13
2023-05-23T13:20:00.204Z,8.93
2023-05-23T13:22:27.165Z,7.40
2023-05-23T13:24:54.107Z,16.77
2023-05-23T13:27:21.003Z,13.30
2023-05-23T13:29:47.911Z,9.18
2023-05-23T13:32:14.839Z,9.10
2023-05-23T13:34:42.499Z,9.27
2023-05-23T13:37:09.553Z,12.43
2023-05-23T13:39:36.470Z,10.87
2023-05-23T13:42:03.410Z,8.80
2023-05-23T13:44:30.292Z,10.02
2023-05-23T13:46:58.677Z,10.23
2023-05-23T13:49:25.625Z,11.30
2023-05-23T13:51:52.568Z,12.80
2023-05-23T13:54:19.440Z,11.88
2023-05-23T13:56:46.325Z,12.55
2023-05-23T13:59:13.227Z,12.05
2023-05-23T14:01:40.152Z,12.35
2023-05-23T14:04:07.403Z,12.38
2023-05-23T14:06:34.357Z,13.27
2023-05-23T14:09:01.291Z,13.50
2023-05-23T14:11:28.256Z,13.93
2023-05-23T14:13:55.158Z,14.70
2023-05-23T14:16:22.105Z,14.75
2023-05-23T14:18:49.160Z,12.43
2023-05-23T14:21:16.165Z,13.88
2023-05-23T14:23:43.089Z,12.48
2023-05-23T14:26:10.052Z,14.27
2023-05-23T14:28:36.944Z,10.98
2023-05-23T14:31:03.882Z,14.98
2023-05-23T14:33:30.942Z,13.13
2023-05-23T14:35:57.856Z,11.80
2023-05-23T14:38:24.955Z,14.88
2023-05-23T14:40:51.859Z,13.02
2023-05-23T14:43:18.746Z,14.15
2023-05-23T14:45:45.847Z,12.65
2023-05-23T14:48:13.014Z,11.55
2023-05-23T14:50:40.033Z,12.75
2023-05-23T14:53:06.969Z,11.43
2023-05-23T14:55:33.897Z,12.70
2023-05-23T14:58:00.783Z,12.57
2023-05-23T15:00:27.715Z,16.60
2023-05-23T15:02:54.816Z,16.20
2023-05-23T15:05:21.863Z,17.00
2023-05-23T15:07:48.830Z,14.70
2023-05-23T15:10:15.719Z,17.33
2023-05-23T15:12:42.625Z,12.32
2023-05-23T15:15:09.881Z,13.77
2023-05-23T15:17:36.811Z,16.52
2023-05-23T15:20:06.801Z,11.70
2023-05-23T15:22:39.336Z,12.27
2023-05-23T15:25:08.321Z,13.65
2023-05-23T15:27:35.315Z,13.95
2023-05-23T15:30:03.543Z,13.70
2023-05-23T15:32:30.556Z,13.75
2023-05-23T15:34:57.702Z,16.60
2023-05-23T15:37:24.583Z,15.80
2023-05-23T15:39:51.550Z,12.80
2023-05-23T15:42:18.468Z,13.82
2023-05-23T15:44:45.394Z,12.50
2023-05-23T15:47:12.392Z,14.20
2023-05-23T15:49:39.276Z,16.40
2023-05-23T15:52:06.148Z,13.80
2023-05-23T15:54:33.063Z,15.48
2023-05-23T15:57:00.012Z,16.80
2023-05-23T15:59:26.900Z,15.38
2023-05-23T16:01:53.838Z,18.15
2023-05-23T16:04:20.818Z,15.23
2023-05-23T16:06:47.785Z,19.90
2023-05-23T16:09:14.826Z,17.02
2023-05-23T16:11:42.161Z,17.08
2023-05-23T16:14:09.158Z,13.73
2023-05-23T16:16:36.139Z,19.38
2023-05-23T16:19:03.894Z,12.80
2023-05-23T16:21:30.879Z,14.18
2023-05-23T16:23:57.844Z,18.42
2023-05-23T16:26:24.780Z,15.80
2023-05-23T16:28:51.719Z,13.65
2023-05-23T16:31:18.693Z,18.60
2023-05-23T16:33:45.695Z,14.60
2023-05-23T16:36:12.684Z,14.98
2023-05-23T16:38:39.612Z,14.35
2023-05-23T16:41:06.594Z,16.77
2023-05-23T16:43:34.490Z,16.58
2023-05-23T16:46:02.497Z,15.98
2023-05-23T16:48:29.524Z,15.38
2023-05-23T16:50:57.430Z,18.63
2023-05-23T16:53:24.386Z,15.48
2023-05-23T16:55:51.385Z,20.30
2023-05-23T16:58:20.738Z,22.77
2023-05-23T17:00:48.223Z,16.75
2023-05-23T17:03:15.224Z,17.00
2023-05-23T17:05:42.566Z,15.50
2023-05-23T17:08:09.668Z,17.73
2023-05-23T17:10:37.087Z,17.98
2023-05-23T17:13:04.000Z,17.23
2023-05-23T17:15:30.897Z,17.33
2023-05-23T17:17:57.856Z,23.25
2023-05-23T17:20:24.802Z,19.93
2023-05-23T17:22:51.708Z,20.85
2023-05-23T17:25:18.722Z,20.30
2023-05-23T17:27:46.224Z,20.50
2023-05-23T17:30:13.441Z,16.30
2023-05-23T17:32:41.019Z,17.67
2023-05-23T17:35:08.260Z,19.77
2023-05-23T17:37:36.208Z,18.42
2023-05-23T17:40:03.999Z,18.52
2023-05-23T17:42:30.932Z,16.55
2023-05-23T17:44:57.876Z,21.98
2023-05-23T17:47:24.782Z,21.10
2023-05-23T17:49:51.689Z,29.38
2023-05-23T17:52:18.614Z,23.95
2023-05-23T17:54:45.492Z,16.88
2023-05-23T17:57:12.438Z,18.55
2023-05-23T17:59:39.307Z,20.67
2023-05-23T18:02:06.763Z,17.85
2023-05-23T18:04:33.794Z,22.60
2023-05-23T18:07:00.729Z,22.63
2023-05-23T18:09:27.668Z,18.52
2023-05-23T18:11:54.553Z,18.17
2023-05-23T18:14:21.434Z,18.55
2023-05-23T18:16:48.371Z,18.80
2023-05-23T18:19:15.427Z,19.77
2023-05-23T18:21:42.452Z,19.23
2023-05-23T18:24:09.434Z,22.95
2023-05-23T18:26:36.342Z,18.80
2023-05-23T18:29:03.229Z,18.45
2023-05-23T18:31:30.191Z,19.67
2023-05-23T18:33:57.151Z,19.27
2023-05-23T18:36:24.056Z,18.60
2023-05-23T18:38:51.059Z,19.42
2023-05-23T18:41:18.044Z,16.42
2023-05-23T18:43:44.967Z,20.35
2023-05-23T18:46:11.963Z,18.27
2023-05-23T18:48:38.882Z,22.40
2023-05-23T18:51:05.856Z,19.95
2023-05-23T18:53:32.794Z,20.30
2023-05-23T18:55:59.735Z,20.77
2023-05-23T18:58:26.694Z,21.35
2023-05-23T19:00:53.583Z,17.60
2023-05-23T19:03:20.566Z,23.33
2023-05-23T19:05:47.513Z,16.98
2023-05-23T19:08:14.401Z,19.35
2023-05-23T19:10:41.524Z,20.15
2023-05-23T19:13:08.643Z,24.77
2023-05-23T19:15:35.553Z,18.00
2023-05-23T19:18:02.600Z,21.25
2023-05-23T19:20:29.515Z,22.70
2023-05-23T19:22:56.458Z,18.63
2023-05-23T19:25:23.408Z,20.02
2023-05-23T19:27:50.424Z,18.10
2023-05-23T19:30:17.380Z,18.42
2023-05-23T19:32:44.294Z,17.52
2023-05-23T19:35:12.736Z,25.10
2023-05-23T19:37:41.697Z,21.55
2023-05-23T19:40:09.083Z,17.85
2023-05-23T19:42:36.078Z,16.38
2023-05-23T19:45:03.205Z,17.50
2023-05-23T19:47:31.034Z,18.15
2023-05-23T19:49:58.099Z,22.07
2023-05-23T19:52:25.232Z,19.67
2023-05-23T19:54:52.214Z,21.90
2023-05-23T19:57:19.126Z,19.30
2023-05-23T19:59:46.049Z,18.05
2023-05-23T20:02:12.946Z,17.10
2023-05-23T20:04:39.846Z,20.35
2023-05-23T20:07:06.759Z,18.88
2023-05-23T20:09:33.641Z,21.33
2023-05-23T20:12:00.551Z,17.90
2023-05-23T20:14:29.210Z,22.38
2023-05-23T20:16:56.332Z,24.40
2023-05-23T20:19:23.257Z,19.48
2023-05-23T20:21:50.203Z,18.30
2023-05-23T20:24:17.187Z,19.55
2023-05-23T20:26:44.120Z,20.73
2023-05-23T20:29:11.064Z,25.60
2023-05-23T20:31:38.122Z,25.23
2023-05-23T20:34:05.036Z,19.88
2023-05-23T20:36:32.244Z,20.87
2023-05-23T20:38:59.584Z,24.97
2023-05-23T20:41:26.538Z,22.63
2023-05-23T20:43:53.469Z,22.83
2023-05-23T20:46:20.404Z,18.48
2023-05-23T20:48:47.308Z,23.55
2023-05-23T20:51:14.218Z,18.27
2023-05-23T20:53:41.147Z,18.27
2023-05-23T20:56:08.154Z,17.65
2023-05-23T20:58:35.033Z,23.00
2023-05-23T21:01:02.050Z,22.35
2023-05-23T21:03:29.095Z,23.27
2023-05-23T21:05:56.137Z,21.08
2023-05-23T21:08:23.046Z,24.98
2023-05-23T21:10:51.719Z,17.92
2023-05-23T21:13:21.227Z,19.75
2023-05-23T21:15:48.194Z,22.05
2023-05-23T21:18:15.100Z,20.75
2023-05-23T21:20:42.271Z,21.52
2023-05-23T21:23:09.376Z,16.77
2023-05-23T21:25:36.290Z,23.75
2023-05-23T21:28:03.242Z,18.40
2023-05-23T21:30:30.159Z,22.00
2023-05-23T21:32:57.108Z,18.77
2023-05-23T21:35:24.019Z,17.80
2023-05-23T21:37:50.929Z,21.10
2023-05-23T21:40:17.938Z,18.23
2023-05-23T21:42:44.852Z,22.50
2023-05-23T21:45:12.022Z,20.63
2023-05-23T21:47:39.010Z,17.00
2023-05-23T21:50:06.579Z,19.95
2023-05-23T21:52:33.509Z,22.88
2023-05-23T21:55:00.395Z,23.85
2023-05-23T21:57:27.323Z,19.25
2023-05-23T21:59:54.278Z,19.77
2023-05-23T22:02:21.219Z,24.05
2023-05-23T22:04:48.109Z,22.33
2023-05-23T22:07:15.028Z,20.42
2023-05-23T22:09:42.006Z,26.55
2023-05-23T22:12:09.123Z,20.67
2023-05-23T22:14:36.007Z,22.07
2023-05-23T22:17:03.432Z,23.15
2023-05-23T22:19:30.512Z,22.17
2023-05-23T22:21:57.578Z,23.15
2023-05-23T22:24:24.527Z,23.00
2023-05-23T22:26:51.789Z,19.83
2023-05-23T22:29:18.736Z,21.42
2023-05-23T22:31:45.713Z,21.33
2023-05-23T22:34:12.625Z,22.67
2023-05-23T22:36:39.567Z,21.05
2023-05-23T22:39:06.557Z,21.02
2023-05-23T22:41:33.540Z,22.42
2023-05-23T22:44:00.432Z,25.63
2023-05-23T22:46:27.549Z,21.30
2023-05-23T22:48:54.508Z,20.13
2023-05-23T22:51:21.860Z,22.42
2023-05-23T22:53:48.820Z,21.98
2023-05-23T22:56:15.798Z,24.08
2023-05-23T22:58:42.988Z,19.38
2023-05-23T23:01:10.082Z,19.10
2023-05-23T23:03:37.069Z,18.65
2023-05-23T23:06:04.563Z,20.63
2023-05-23T23:08:31.602Z,21.02
2023-05-23T23:10:58.771Z,19.38
2023-05-23T23:13:25.670Z,18.70
2023-05-23T23:15:52.641Z,20.05
2023-05-23T23:18:19.529Z,21.05
2023-05-23T23:20:46.974Z,22.58
2023-05-23T23:23:14.184Z,21.20
2023-05-23T23:25:41.170Z,19.40
2023-05-23T23:28:08.102Z,19.92
2023-05-23T23:30:35.057Z,22.33
2023-05-23T23:33:02.094Z,21.27
2023-05-23T23:38:03.769Z,19.55
2023-05-23T23:40:30.738Z,21.65
2023-05-23T23:42:57.996Z,20.63
2023-05-23T23:45:25.018Z,22.97
2023-05-23T23:47:52.014Z,20.83
2023-05-23T23:50:19.070Z,22.42
2023-05-23T23:52:45.969Z,26.58
2023-05-23T23:55:13.033Z,22.70
2023-05-23T23:57:39.926Z,24.05
